Time;durP1;ratioP1;P1;durP2;ratioP2;P2;SDS_P1;SDS_P2;PMS_P1;PMS_P2;Temp;Humidity;BMP_temperature;BMP_pressure;BME280_temperature;BME280_humidity;BME280_pressure;Samples;Min_cycle;Max_cycle;Signal;HPM_P1;HPM_P2
2023/07/21 00:00:24;;;;;;;16.58;8.25;;;18.00;99.90;;;;;;5091356;28;20188;-50
2023/07/21 00:02:50;;;;;;;8.38;7.20;;;17.90;99.90;;;;;;5072730;28;20205;-50
2023/07/21 00:05:16;;;;;;;8.60;7.80;;;17.90;99.90;;;;;;5091389;28;20664;-51
2023/07/21 00:07:42;;;;;;;8.93;7.97;;;17.90;99.90;;;;;;5091898;28;20625;-50
2023/07/21 00:10:09;;;;;;;10.48;8.38;;;17.80;99.90;;;;;;5074923;28;20170;-50
2023/07/21 00:12:35;;;;;;;9.45;8.52;;;17.70;99.90;;;;;;5074692;28;20228;-50
2023/07/21 00:15:01;;;;;;;8.43;7.63;;;17.60;99.90;;;;;;5074781;28;20622;-50
2023/07/21 00:17:30;;;;;;;10.25;8.30;;;17.60;99.90;;;;;;5074810;28;20228;-50
2023/07/21 00:20:04;;;;;;;8.95;8.05;;;17.60;99.90;;;;;;5074981;28;20200;-50
2023/07/21 00:22:31;;;;;;;10.32;9.27;;;17.70;99.90;;;;;;5075055;28;20166;-51
2023/07/21 00:24:57;;;;;;;9.68;8.70;;;17.70;99.90;;;;;;5074633;28;20645;-50
2023/07/21 00:27:23;;;;;;;8.88;7.97;;;17.70;99.90;;;;;;5074643;28;20158;-51
2023/07/21 00:29:49;;;;;;;10.75;8.80;;;17.60;99.90;;;;;;5074573;28;20174;-50
2023/07/21 00:32:18;;;;;;;11.18;8.23;;;17.50;99.90;;;;;;5075064;28;20174;-50
2023/07/21 00:34:44;;;;;;;10.82;8.60;;;17.40;99.90;;;;;;5056944;28;20542;-50
2023/07/21 00:37:10;;;;;;;12.88;9.00;;;17.60;99.90;;;;;;5075348;28;20173;-50
2023/07/21 00:39:36;;;;;;;11.05;8.63;;;17.50;99.90;;;;;;5094389;28;20170;-50
2023/07/21 00:42:04;;;;;;;9.90;8.85;;;17.40;99.90;;;;;;5094318;28;20244;-50
2023/07/21 00:44:30;;;;;;;13.25;9.88;;;17.40;99.90;;;;;;5094841;28;20208;-50
2023/07/21 00:46:56;;;;;;;13.02;10.77;;;17.40;99.90;;;;;;5094521;28;20165;-50
2023/07/21 00:49:22;;;;;;;18.98;11.52;;;17.40;99.90;;;;;;5094605;28;20256;-50
2023/07/21 00:51:47;;;;;;;14.25;10.23;;;17.50;99.90;;;;;;5094405;28;20683;-50
2023/07/21 00:54:13;;;;;;;12.15;10.57;;;17.50;99.90;;;;;;5094762;28;20567;-50
2023/07/21 00:56:39;;;;;;;11.77;10.57;;;17.60;99.90;;;;;;5094557;28;20169;-50
2023/07/21 00:59:04;;;;;;;15.60;11.52;;;17.50;99.90;;;;;;5094351;28;20659;-50
2023/07/21 01:01:30;;;;;;;14.18;9.95;;;17.50;99.90;;;;;;5094593;28;20161;-50
2023/07/21 01:03:56;;;;;;;11.95;10.27;;;17.40;99.90;;;;;;5094157;28;20204;-50
2023/07/21 01:06:27;;;;;;;15.30;11.40;;;17.40;99.90;;;;;;5094279;28;20219;-50
2023/07/21 01:08:56;;;;;;;11.25;10.15;;;17.30;99.90;;;;;;5094113;28;20213;-50
2023/07/21 01:11:24;;;;;;;18.23;10.98;;;17.30;99.90;;;;;;5093764;28;20308;-50
2023/07/21 01:13:50;;;;;;;11.98;10.77;;;17.30;99.90;;;;;;5093952;28;20205;-50
2023/07/21 01:16:17;;;;;;;13.80;11.20;;;17.30;99.90;;;;;;5094093;28;20195;-50
2023/07/21 01:18:44;;;;;;;12.23;10.93;;;17.30;99.90;;;;;;5093199;28;20177;-50
2023/07/21 01:21:14;;;;;;;13.55;10.68;;;17.30;99.90;;;;;;5094159;28;20170;-50
2023/07/21 01:23:55;;;;;;;17.92;10.98;;;17.30;99.90;;;;;;5093895;28;20176;-50
2023/07/21 01:26:23;;;;;;;14.98;11.52;;;17.30;99.90;;;;;;5093800;28;20260;-50
2023/07/21 01:28:49;;;;;;;15.60;10.85;;;17.30;99.90;;;;;;5093775;28;20244;-50
2023/07/21 01:31:16;;;;;;;16.73;11.50;;;17.30;99.90;;;;;;5094209;28;20169;-50
2023/07/21 01:33:43;;;;;;;17.42;10.75;;;17.20;99.90;;;;;;5093940;28;20208;-50
2023/07/21 01:36:09;;;;;;;14.57;11.68;;;17.20;99.90;;;;;;5091898;28;20178;-50
2023/07/21 01:38:35;;;;;;;12.77;10.32;;;17.20;99.90;;;;;;5093571;28;20170;-51
2023/07/21 01:41:02;;;;;;;16.38;11.68;;;17.10;99.90;;;;;;5093501;28;20170;-50
2023/07/21 01:43:27;;;;;;;18.23;11.98;;;17.10;99.90;;;;;;5093796;28;20192;-50
2023/07/21 01:45:53;;;;;;;13.32;11.93;;;17.10;99.90;;;;;;5093437;28;20628;-50
2023/07/21 01:48:19;;;;;;;14.80;12.70;;;17.10;99.90;;;;;;5093427;28;20176;-50
2023/07/21 01:50:46;;;;;;;14.65;11.75;;;17.10;99.90;;;;;;5094051;28;20168;-50
2023/07/21 01:53:17;;;;;;;13.13;11.80;;;17.20;99.90;;;;;;5093602;28;20563;-50
2023/07/21 01:55:52;;;;;;;15.00;11.70;;;17.10;99.90;;;;;;5093900;28;20256;-50
2023/07/21 01:58:19;;;;;;;14.60;12.10;;;17.20;99.90;;;;;;5093340;28;20207;-50
2023/07/21 02:00:47;;;;;;;14.63;12.57;;;17.20;99.90;;;;;;5093608;28;20525;-50
2023/07/21 02:03:15;;;;;;;13.77;12.43;;;17.30;99.90;;;;;;5093502;28;20189;-50
2023/07/21 02:05:41;;;;;;;14.45;13.00;;;17.20;99.90;;;;;;5080902;28;20211;-50
2023/07/21 02:08:09;;;;;;;13.75;12.50;;;17.20;99.90;;;;;;5072772;28;20629;-50
2023/07/21 02:10:36;;;;;;;15.15;13.65;;;17.20;99.90;;;;;;5072811;28;20522;-50
2023/07/21 02:13:02;;;;;;;17.27;14.25;;;17.20;99.90;;;;;;5072714;28;20186;-50
2023/07/21 02:15:27;;;;;;;14.50;12.98;;;17.30;99.90;;;;;;5072844;28;20665;-50
2023/07/21 02:17:53;;;;;;;15.00;13.32;;;17.20;99.90;;;;;;5072749;28;20498;-50
2023/07/21 02:20:18;;;;;;;17.08;13.15;;;17.30;99.90;;;;;;5072489;28;20170;-49
2023/07/21 02:22:44;;;;;;;14.50;13.02;;;17.40;99.90;;;;;;5072868;28;20162;-50
2023/07/21 02:25:10;;;;;;;15.07;13.07;;;17.40;99.90;;;;;;5072786;28;20174;-51
2023/07/21 02:27:36;;;;;;;15.50;12.23;;;17.40;99.90;;;;;;5072620;28;20249;-50
2023/07/21 02:30:03;;;;;;;20.02;12.45;;;17.30;99.90;;;;;;5072100;28;20173;-50
2023/07/21 02:32:28;;;;;;;22.08;12.75;;;17.20;99.90;;;;;;5054264;28;20181;-50
2023/07/21 02:34:54;;;;;;;23.30;11.38;;;16.90;99.90;;;;;;5077498;28;20173;-51
2023/07/21 02:37:20;;;;;;;25.85;12.07;;;16.70;99.90;;;;;;5092469;28;20158;-50
2023/07/21 02:39:46;;;;;;;23.90;13.00;;;16.60;99.90;;;;;;5092351;28;20214;-50
2023/07/21 02:42:11;;;;;;;23.17;13.95;;;16.80;99.90;;;;;;5092758;28;20176;-50
2023/07/21 02:44:37;;;;;;;20.58;13.88;;;16.90;99.90;;;;;;5091996;28;20202;-49
2023/07/21 02:47:02;;;;;;;30.20;14.75;;;16.90;99.90;;;;;;5092283;28;20173;-50
2023/07/21 02:49:30;;;;;;;24.27;14.88;;;17.10;99.90;;;;;;5092154;28;20176;-50
2023/07/21 02:51:56;;;;;;;19.75;13.98;;;17.00;99.90;;;;;;5092141;28;20697;-50
2023/07/21 02:54:21;;;;;;;25.13;15.23;;;17.00;99.90;;;;;;5073958;28;20303;-50
2023/07/21 02:56:47;;;;;;;21.77;14.07;;;17.00;99.90;;;;;;5092049;28;20161;-50
2023/07/21 02:59:13;;;;;;;23.80;14.57;;;17.00;99.90;;;;;;5074304;28;20564;-50
2023/07/21 03:01:39;;;;;;;25.60;13.35;;;17.10;99.90;;;;;;5092250;28;20264;-49
2023/07/21 03:04:05;;;;;;;21.85;13.60;;;17.10;99.90;;;;;;5092032;28;20637;-49
2023/07/21 03:06:31;;;;;;;23.55;13.63;;;18.70;99.90;;;;;;5072636;28;20220;-49
2023/07/21 03:08:57;;;;;;;27.48;14.07;;;16.90;99.90;;;;;;5071766;28;20181;-49
2023/07/21 03:11:23;;;;;;;27.30;15.18;;;16.90;99.90;;;;;;5071726;28;20210;-49
2023/07/21 03:13:48;;;;;;;24.30;13.82;;;16.80;99.90;;;;;;5071565;28;20745;-50
2023/07/21 03:16:14;;;;;;;17.50;15.02;;;16.80;99.90;;;;;;5072005;28;20287;-50
2023/07/21 03:18:40;;;;;;;20.65;13.75;;;16.80;99.90;;;;;;5071944;28;20211;-50
2023/07/21 03:21:05;;;;;;;16.00;14.30;;;16.90;99.90;;;;;;5071577;28;20532;-50
2023/07/21 03:23:31;;;;;;;19.50;14.63;;;17.00;99.90;;;;;;5071803;28;20640;-50
2023/07/21 03:25:57;;;;;;;21.15;14.98;;;17.00;99.90;;;;;;5071488;28;20528;-50
2023/07/21 03:28:23;;;;;;;21.67;14.30;;;17.00;99.90;;;;;;5071472;28;20257;-50
2023/07/21 03:31:02;;;;;;;15.40;13.80;;;17.00;99.90;;;;;;5071623;28;20204;-50
2023/07/21 03:33:28;;;;;;;17.63;14.77;;;17.00;99.90;;;;;;5053451;28;20270;-50
2023/07/21 03:36:04;;;;;;;28.90;14.38;;;17.00;99.90;;;;;;5084690;28;20177;-50
2023/07/21 03:38:33;;;;;;;38.47;14.93;;;16.90;99.90;;;;;;5090915;28;20648;-50
2023/07/21 03:41:07;;;;;;;21.30;14.80;;;16.90;99.90;;;;;;5093322;28;20169;-50
2023/07/21 03:43:33;;;;;;;23.70;15.77;;;16.80;99.90;;;;;;5098214;28;20165;-50
2023/07/21 03:46:00;;;;;;;26.70;15.68;;;16.90;99.90;;;;;;5098446;28;20173;-50
2023/07/21 03:48:26;;;;;;;20.05;15.30;;;16.80;99.90;;;;;;5098194;28;20201;-50
2023/07/21 03:50:59;;;;;;;24.02;15.98;;;16.80;99.90;;;;;;5098106;28;20184;-50
2023/07/21 03:53:26;;;;;;;25.02;17.48;;;16.70;99.90;;;;;;5098020;28;20288;-50
2023/07/21 03:55:52;;;;;;;24.83;16.52;;;16.90;99.90;;;;;;5098095;28;20172;-50
2023/07/21 03:58:18;;;;;;;23.83;16.90;;;16.90;99.90;;;;;;5098102;28;20525;-49
2023/07/21 04:00:44;;;;;;;23.92;17.42;;;17.00;99.90;;;;;;5098729;28;20169;-49
2023/07/21 04:03:09;;;;;;;23.33;17.00;;;17.00;99.90;;;;;;5098571;28;20195;-50
2023/07/21 04:05:35;;;;;;;20.23;17.83;;;17.00;99.90;;;;;;5066370;28;20181;-50
2023/07/21 04:08:02;;;;;;;22.83;16.70;;;17.10;99.90;;;;;;5077707;28;20245;-50
2023/07/21 04:10:28;;;;;;;21.58;16.27;;;17.20;99.90;;;;;;5077491;28;20170;-50
2023/07/21 04:12:54;;;;;;;27.55;16.23;;;17.10;99.90;;;;;;5077599;28;20202;-50
2023/07/21 04:15:19;;;;;;;26.33;17.38;;;17.00;99.90;;;;;;5077886;28;20174;-50
2023/07/21 04:17:45;;;;;;;23.52;16.27;;;17.10;99.90;;;;;;5077733;28;20181;-49
2023/07/21 04:20:13;;;;;;;26.10;16.05;;;17.00;99.90;;;;;;5077968;28;20192;-50
2023/07/21 04:22:38;;;;;;;19.52;15.85;;;17.10;99.90;;;;;;5077319;28;20634;-50
2023/07/21 04:25:04;;;;;;;24.20;14.90;;;17.20;99.90;;;;;;5077569;28;20178;-49
2023/07/21 04:27:30;;;;;;;24.05;16.75;;;17.20;99.90;;;;;;5077519;28;20170;-49
2023/07/21 04:29:55;;;;;;;24.38;14.95;;;15.80;99.90;;;;;;5063292;28;20211;-50
2023/07/21 04:32:21;;;;;;;24.85;16.05;;;17.20;99.90;;;;;;5088032;28;20639;-49
2023/07/21 04:34:47;;;;;;;34.90;16.33;;;17.10;99.90;;;;;;5084182;28;20227;-50
2023/07/21 04:37:13;;;;;;;31.30;16.48;;;17.00;99.90;;;;;;5077793;28;20249;-49
2023/07/21 04:39:39;;;;;;;43.03;16.60;;;17.00;99.90;;;;;;5077658;28;20174;-49
2023/07/21 04:42:05;;;;;;;31.98;16.48;;;17.10;99.90;;;;;;5077604;28;20170;-49
2023/07/21 04:44:31;;;;;;;46.53;16.83;;;17.10;99.90;;;;;;5077453;28;20166;-50
2023/07/21 04:46:57;;;;;;;41.92;17.15;;;17.10;99.90;;;;;;5077363;28;20170;-50
2023/07/21 04:49:22;;;;;;;37.95;17.42;;;17.20;99.90;;;;;;5077268;28;20306;-50
2023/07/21 04:51:48;;;;;;;40.72;16.58;;;17.30;99.90;;;;;;5077341;28;20169;-50
2023/07/21 04:54:13;;;;;;;42.70;15.75;;;17.30;99.90;;;;;;5074443;28;20206;-49
2023/07/21 04:56:39;;;;;;;61.22;16.08;;;17.30;99.90;;;;;;5074451;28;20170;-55
2023/07/21 04:59:05;;;;;;;52.15;16.65;;;17.20;99.90;;;;;;5074059;28;20247;-50
2023/07/21 05:01:33;;;;;;;54.78;16.42;;;17.20;99.90;;;;;;5074004;28;20192;-50
2023/07/21 05:03:58;;;;;;;39.33;16.15;;;17.20;99.90;;;;;;5074187;28;20170;-50
2023/07/21 05:06:24;;;;;;;22.48;14.10;;;17.30;99.90;;;;;;5073674;28;20170;-49
2023/07/21 05:08:50;;;;;;;38.53;14.95;;;17.40;99.90;;;;;;5075584;28;20186;-50
2023/07/21 05:11:15;;;;;;;33.55;15.55;;;17.20;99.90;;;;;;5094165;28;20299;-50
2023/07/21 05:13:41;;;;;;;44.83;17.27;;;17.30;99.90;;;;;;5092587;28;20205;-50
2023/07/21 05:16:07;;;;;;;36.28;16.38;;;17.40;99.90;;;;;;5059222;28;20227;-49
2023/07/21 05:18:34;;;;;;;32.40;15.82;;;17.50;99.90;;;;;;5073093;28;20630;-49
2023/07/21 05:20:59;;;;;;;30.13;15.07;;;17.60;99.90;;;;;;5073216;28;20617;-49
2023/07/21 05:23:25;;;;;;;23.80;14.45;;;17.60;99.90;;;;;;5083553;28;20186;-49
2023/07/21 05:26:01;;;;;;;22.92;15.75;;;17.50;99.90;;;;;;5090859;28;20169;-50
2023/07/21 05:28:28;;;;;;;22.50;15.07;;;17.60;99.90;;;;;;5093688;28;20177;-50
2023/07/21 05:30:53;;;;;;;21.05;14.32;;;17.80;99.90;;;;;;5086103;28;20166;-50
2023/07/21 05:33:19;;;;;;;19.08;13.60;;;17.70;99.90;;;;;;5074448;28;20215;-50
2023/07/21 05:35:45;;;;;;;19.95;13.82;;;17.70;99.90;;;;;;5073672;28;20588;-50
2023/07/21 05:38:10;;;;;;;30.15;15.40;;;17.70;99.90;;;;;;5055886;28;20204;-50
2023/07/21 05:40:36;;;;;;;27.65;14.02;;;17.80;99.90;;;;;;5073381;28;20585;-50
2023/07/21 05:43:02;;;;;;;15.68;13.25;;;17.70;99.90;;;;;;5073287;28;20169;-50
2023/07/21 05:45:28;;;;;;;17.75;13.73;;;17.90;99.90;;;;;;5073533;28;20170;-50
2023/07/21 05:47:55;;;;;;;22.80;14.60;;;17.90;99.90;;;;;;5073197;28;20181;-50
2023/07/21 05:50:21;;;;;;;25.20;14.27;;;17.90;99.90;;;;;;5073171;28;20158;-50
2023/07/21 05:52:50;;;;;;;20.90;14.77;;;18.10;99.90;;;;;;5080439;28;20251;-51
2023/07/21 05:55:16;;;;;;;19.30;13.63;;;18.10;99.90;;;;;;5092032;28;20173;-51
2023/07/21 05:57:42;;;;;;;22.27;13.48;;;18.20;99.90;;;;;;5091504;28;20256;-50
2023/07/21 06:00:14;;;;;;;20.25;13.57;;;18.20;99.90;;;;;;5071599;28;20177;-51
2023/07/21 06:02:40;;;;;;;23.30;13.30;;;18.20;99.90;;;;;;5071547;28;20174;-50
2023/07/21 06:05:06;;;;;;;29.33;13.82;;;18.30;99.90;;;;;;5070582;28;20178;-50
2023/07/21 06:07:32;;;;;;;19.17;13.27;;;18.20;99.90;;;;;;5077796;28;20169;-47
2023/07/21 06:09:57;;;;;;;20.88;13.50;;;18.20;99.90;;;;;;5074133;28;20185;-51
2023/07/21 06:12:23;;;;;;;23.27;14.48;;;18.20;99.90;;;;;;5090764;28;20221;-50
2023/07/21 06:14:48;;;;;;;15.73;13.57;;;18.20;99.90;;;;;;5091207;28;20221;-49
2023/07/21 06:17:14;;;;;;;16.08;13.70;;;18.30;99.90;;;;;;5091225;28;20643;-49
2023/07/21 06:19:40;;;;;;;23.08;13.93;;;18.30;99.90;;;;;;5091580;28;20692;-50
2023/07/21 06:22:07;;;;;;;19.77;13.73;;;18.50;99.90;;;;;;5091206;28;20161;-50
2023/07/21 06:24:32;;;;;;;21.83;13.63;;;18.50;99.90;;;;;;5091215;28;20175;-50
2023/07/21 06:26:59;;;;;;;21.45;15.43;;;18.60;99.90;;;;;;5090940;28;20570;-49
2023/07/21 06:29:24;;;;;;;19.25;14.45;;;18.60;99.90;;;;;;5091089;28;20185;-50
2023/07/21 06:31:51;;;;;;;22.15;15.43;;;18.70;99.90;;;;;;5090883;28;20529;-51
2023/07/21 06:34:17;;;;;;;25.80;16.13;;;19.10;99.90;;;;;;5090952;28;20266;-50
2023/07/21 06:36:43;;;;;;;17.63;15.73;;;19.20;99.90;;;;;;5091381;28;20169;-50
2023/07/21 06:39:09;;;;;;;21.10;15.55;;;19.40;99.90;;;;;;5071165;28;20238;-50
2023/07/21 06:41:35;;;;;;;18.33;16.70;;;19.30;99.90;;;;;;5070306;28;20630;-50
2023/07/21 06:44:01;;;;;;;18.70;16.65;;;19.50;99.90;;;;;;5070618;28;20547;-49
2023/07/21 06:46:26;;;;;;;17.50;15.85;;;19.50;99.90;;;;;;5070630;28;20256;-50
2023/07/21 06:48:53;;;;;;;17.75;14.90;;;19.40;99.90;;;;;;5070517;28;20165;-49
2023/07/21 06:51:19;;;;;;;19.83;15.75;;;19.40;99.90;;;;;;5070659;28;20534;-50
2023/07/21 06:53:45;;;;;;;17.45;15.65;;;19.40;99.90;;;;;;5070085;28;20201;-49
2023/07/21 06:56:13;;;;;;;18.65;16.77;;;19.10;99.90;;;;;;5070489;28;20527;-49
2023/07/21 06:58:39;;;;;;;19.73;16.85;;;19.30;99.90;;;;;;5070838;28;20177;-49
2023/07/21 07:01:07;;;;;;;21.17;15.60;;;19.60;99.90;;;;;;5070210;28;20176;-49
2023/07/21 07:03:33;;;;;;;17.10;15.30;;;19.80;99.90;;;;;;5070082;28;20166;-49
2023/07/21 07:05:59;;;;;;;18.30;16.40;;;19.80;99.90;;;;;;5070114;28;20223;-49
2023/07/21 07:08:25;;;;;;;18.25;15.95;;;19.80;99.90;;;;;;5071153;28;20265;-49
2023/07/21 07:10:51;;;;;;;17.48;15.90;;;19.90;99.90;;;;;;5089851;28;20288;-49
2023/07/21 07:13:16;;;;;;;16.52;15.02;;;19.90;99.90;;;;;;5090476;28;20205;-49
2023/07/21 07:15:48;;;;;;;17.45;15.02;;;20.00;99.90;;;;;;5090187;28;20170;-49
2023/07/21 07:18:13;;;;;;;18.08;14.52;;;19.90;99.90;;;;;;5090591;28;20170;-49
2023/07/21 07:20:40;;;;;;;17.48;15.50;;;19.80;99.90;;;;;;5090088;28;20174;-49
2023/07/21 07:23:05;;;;;;;18.83;16.95;;;19.90;99.90;;;;;;5090263;28;20178;-50
2023/07/21 07:25:31;;;;;;;17.25;15.63;;;19.80;99.90;;;;;;5090132;28;20174;-49
2023/07/21 07:27:56;;;;;;;20.48;18.38;;;20.00;99.90;;;;;;5090151;28;20582;-49
2023/07/21 07:30:22;;;;;;;20.42;18.27;;;20.10;99.90;;;;;;5090046;28;20530;-49
2023/07/21 07:32:49;;;;;;;20.73;18.13;;;20.30;99.90;;;;;;5089961;28;20670;-49
2023/07/21 07:35:16;;;;;;;19.25;17.38;;;20.10;99.90;;;;;;5090173;28;20173;-50
2023/07/21 07:37:42;;;;;;;16.25;14.68;;;20.40;99.90;;;;;;5089689;28;20161;-50
2023/07/21 07:40:10;;;;;;;17.58;15.57;;;20.70;99.90;;;;;;5090179;28;20173;-50
2023/07/21 07:42:35;;;;;;;17.83;16.10;;;20.60;99.90;;;;;;5090322;28;20203;-50
2023/07/21 07:45:01;;;;;;;16.88;15.18;;;20.70;99.90;;;;;;5090137;28;20208;-50
2023/07/21 07:47:27;;;;;;;15.82;14.23;;;20.80;99.90;;;;;;5089565;28;20700;-49
2023/07/21 07:49:52;;;;;;;15.50;14.00;;;21.00;99.90;;;;;;5090075;28;20242;-49
2023/07/21 07:52:18;;;;;;;15.75;14.25;;;20.90;99.90;;;;;;5089984;28;20629;-49
2023/07/21 07:54:44;;;;;;;15.10;13.80;;;20.90;99.90;;;;;;5089753;28;20231;-49
2023/07/21 07:57:10;;;;;;;17.20;15.35;;;21.10;99.90;;;;;;5090102;28;20648;-49
2023/07/21 07:59:35;;;;;;;16.40;14.50;;;20.90;99.90;;;;;;5090191;28;20214;-49
2023/07/21 08:02:01;;;;;;;16.65;15.13;;;21.00;99.90;;;;;;5089980;28;20161;-49
2023/07/21 08:04:26;;;;;;;15.23;13.20;;;21.30;99.90;;;;;;5089726;28;20222;-50
2023/07/21 08:06:52;;;;;;;14.52;12.98;;;21.60;99.90;;;;;;5089461;28;20168;-49
2023/07/21 08:09:18;;;;;;;15.57;14.00;;;21.70;99.90;;;;;;5069521;28;20179;-49
2023/07/21 08:11:43;;;;;;;15.88;14.38;;;21.60;99.90;;;;;;5069206;28;20706;-50
2023/07/21 08:14:09;;;;;;;15.63;14.02;;;21.30;99.90;;;;;;5069782;28;20655;-50
2023/07/21 08:16:36;;;;;;;16.90;15.40;;;21.40;99.90;;;;;;5069482;28;20516;-50
2023/07/21 08:19:02;;;;;;;16.52;15.02;;;21.20;99.90;;;;;;5069352;28;20207;-50
2023/07/21 08:21:28;;;;;;;15.48;13.98;;;21.20;99.90;;;;;;5069565;28;20185;-50
2023/07/21 08:23:54;;;;;;;14.48;13.07;;;21.40;99.90;;;;;;5069842;28;20190;-50
2023/07/21 08:26:21;;;;;;;15.52;13.85;;;21.40;99.90;;;;;;5069772;28;20176;-50
2023/07/21 08:28:47;;;;;;;16.08;14.57;;;21.30;99.90;;;;;;5072209;28;20656;-50
2023/07/21 08:31:12;;;;;;;19.95;14.90;;;21.40;99.90;;;;;;5073591;28;20174;-49
2023/07/21 08:33:39;;;;;;;16.65;15.05;;;21.40;99.90;;;;;;5073581;28;20209;-50
2023/07/21 08:36:06;;;;;;;16.90;14.95;;;21.40;99.90;;;;;;5055172;28;20208;-50
2023/07/21 08:38:35;;;;;;;16.35;14.77;;;21.60;99.90;;;;;;5085703;28;20506;-49
2023/07/21 08:41:08;;;;;;;16.65;14.98;;;21.80;99.90;;;;;;5093105;28;20177;-50
2023/07/21 08:43:34;;;;;;;15.88;14.20;;;21.80;99.90;;;;;;5091679;28;20247;-50
2023/07/21 08:46:02;;;;;;;14.60;13.18;;;21.40;99.90;;;;;;5093087;28;20621;-50
2023/07/21 08:48:29;;;;;;;14.65;13.15;;;21.50;99.90;;;;;;5093085;28;20269;-50
2023/07/21 08:50:55;;;;;;;14.55;12.73;;;21.40;99.90;;;;;;5093141;28;20260;-50
2023/07/21 08:53:25;;;;;;;15.63;12.85;;;21.10;99.90;;;;;;5093211;28;20261;-50
2023/07/21 08:55:58;;;;;;;14.60;13.23;;;21.30;99.90;;;;;;5092903;28;20636;-50
2023/07/21 08:58:25;;;;;;;13.15;11.90;;;21.60;99.90;;;;;;5092790;28;20589;-50
2023/07/21 09:00:52;;;;;;;13.80;12.40;;;21.70;99.90;;;;;;5092712;28;20244;-50
2023/07/21 09:03:29;;;;;;;12.73;11.60;;;21.80;99.90;;;;;;5093004;28;20205;-49
2023/07/21 09:05:57;;;;;;;14.05;11.52;;;21.90;99.90;;;;;;5092988;28;20208;-50
2023/07/21 09:08:27;;;;;;;12.82;11.52;;;21.70;99.90;;;;;;5092133;28;20647;-50
2023/07/21 09:10:57;;;;;;;14.52;13.20;;;21.80;99.90;;;;;;5092537;28;20714;-50
2023/07/21 09:13:23;;;;;;;15.27;13.32;;;21.60;99.90;;;;;;5092518;28;20270;-51
2023/07/21 09:15:53;;;;;;;11.98;10.88;;;21.70;99.90;;;;;;5092209;28;20637;-49
2023/07/21 09:18:24;;;;;;;13.43;12.13;;;21.90;99.90;;;;;;5092759;28;20184;-50
2023/07/21 09:20:49;;;;;;;13.68;12.40;;;21.80;99.90;;;;;;5092393;28;20260;-49
2023/07/21 09:23:18;;;;;;;11.32;10.23;;;21.70;99.90;;;;;;5092429;28;20248;-50
2023/07/21 09:25:53;;;;;;;10.45;9.45;;;21.80;99.90;;;;;;5092133;28;20172;-49
2023/07/21 09:28:36;;;;;;;10.27;9.27;;;21.60;99.90;;;;;;5075955;28;20243;-49
2023/07/21 09:31:02;;;;;;;10.93;9.10;;;21.80;99.90;;;;;;5071836;28;20188;-49
2023/07/21 09:33:27;;;;;;;10.38;9.38;;;22.00;99.90;;;;;;5071892;28;20209;-49
2023/07/21 09:36:24;;;;;;;10.85;9.85;;;22.20;99.90;;;;;;5071847;28;20574;-49
2023/07/21 09:38:50;;;;;;;11.27;10.27;;;22.20;99.90;;;;;;5070859;28;20166;-49
2023/07/21 09:41:23;;;;;;;9.73;8.02;;;21.90;99.90;;;;;;5071904;28;20525;-49
2023/07/21 09:43:50;;;;;;;8.13;7.05;;;21.90;99.90;;;;;;5071918;28;20178;-49
2023/07/21 09:46:17;;;;;;;8.27;7.53;;;22.20;99.90;;;;;;5072898;28;20265;-49
2023/07/21 09:48:42;;;;;;;10.45;9.55;;;22.50;99.90;;;;;;5091736;28;20170;-50
2023/07/21 09:51:09;;;;;;;10.68;9.68;;;22.80;99.90;;;;;;5074526;28;20279;-50
2023/07/21 09:53:39;;;;;;;9.35;8.55;;;22.50;99.90;;;;;;5091654;28;20208;-49
2023/07/21 09:56:07;;;;;;;8.93;7.18;;;22.80;99.90;;;;;;5091560;28;20176;-51
2023/07/21 09:58:45;;;;;;;7.07;6.53;;;23.00;99.90;;;;;;5091807;28;20248;-49
2023/07/21 10:01:12;;;;;;;7.22;6.45;;;23.30;99.90;;;;;;5092125;28;20172;-50
2023/07/21 10:03:38;;;;;;;7.53;6.82;;;23.60;99.90;;;;;;5092094;28;20172;-48
2023/07/21 10:06:06;;;;;;;9.18;7.35;;;23.40;99.90;;;;;;5089287;28;20165;-50
2023/07/21 10:08:36;;;;;;;7.28;6.57;;;23.60;99.90;;;;;;5071277;28;20709;-51
2023/07/21 10:11:04;;;;;;;7.75;6.85;;;23.80;99.90;;;;;;5070792;28;20709;-51
2023/07/21 10:13:31;;;;;;;8.10;7.30;;;23.40;99.90;;;;;;5053057;28;20207;-50
2023/07/21 10:16:05;;;;;;;7.80;7.10;;;23.20;99.90;;;;;;5084363;28;20628;-50
2023/07/21 10:18:31;;;;;;;6.47;5.88;;;23.30;99.90;;;;;;5090589;28;20747;-50
2023/07/21 10:20:57;;;;;;;6.53;5.97;;;23.30;99.90;;;;;;5091063;28;20279;-50
2023/07/21 10:23:24;;;;;;;7.07;6.38;;;23.20;99.90;;;;;;5091336;28;20175;-51
2023/07/21 10:26:01;;;;;;;7.65;6.88;;;23.00;99.90;;;;;;5088789;28;20243;-51
2023/07/21 10:28:42;;;;;;;6.07;5.47;;;23.00;99.90;;;;;;5070822;28;20165;-51
2023/07/21 10:31:23;;;;;;;6.95;6.35;;;23.10;99.90;;;;;;5071455;28;20173;-51
2023/07/21 10:34:10;;;;;;;6.53;5.80;;;23.20;99.90;;;;;;5070679;28;20570;-50
2023/07/21 10:36:51;;;;;;;4.78;3.97;;;23.50;99.90;;;;;;5070964;28;20161;-51
2023/07/21 10:39:22;;;;;;;4.57;4.10;;;23.50;99.90;;;;;;5070854;28;20169;-50
2023/07/21 10:41:52;;;;;;;4.57;4.18;;;23.50;99.90;;;;;;5070695;28;20181;-50
2023/07/21 10:44:18;;;;;;;5.53;4.90;;;23.30;99.90;;;;;;5070511;28;20180;-50
2023/07/21 10:46:49;;;;;;;6.55;4.88;;;23.40;99.90;;;;;;5070597;28;20180;-50
2023/07/21 10:49:16;;;;;;;5.68;4.65;;;23.40;99.90;;;;;;5070363;28;20157;-51
2023/07/21 10:51:44;;;;;;;4.20;3.80;;;23.20;99.90;;;;;;5070317;28;20193;-50
2023/07/21 10:54:10;;;;;;;7.50;4.25;;;23.10;99.90;;;;;;5070722;28;20208;-50
2023/07/21 10:56:43;;;;;;;4.50;4.10;;;23.00;99.90;;;;;;5052667;28;20174;-50
2023/07/21 10:59:10;;;;;;;4.43;4.03;;;23.20;99.90;;;;;;5070680;28;20177;-50
2023/07/21 11:01:44;;;;;;;4.88;4.10;;;23.30;99.90;;;;;;5070245;28;20169;-51
2023/07/21 11:04:11;;;;;;;4.97;4.47;;;23.50;99.90;;;;;;5070761;28;20183;-51
2023/07/21 11:06:44;;;;;;;5.47;4.97;;;23.80;99.90;;;;;;5069969;28;20172;-51
2023/07/21 11:09:14;;;;;;;5.72;4.40;;;23.70;99.90;;;;;;5070866;28;20377;-50
2023/07/21 11:11:41;;;;;;;5.72;5.00;;;23.70;99.90;;;;;;5070313;28;20308;-50
2023/07/21 11:14:15;;;;;;;6.10;4.47;;;23.50;99.90;;;;;;5070356;28;20223;-50
2023/07/21 11:16:48;;;;;;;4.60;4.20;;;23.20;99.90;;;;;;5070389;28;20637;-51
2023/07/21 11:19:16;;;;;;;4.90;4.40;;;23.50;99.90;;;;;;5070113;28;20169;-51
2023/07/21 11:21:42;;;;;;;4.13;3.72;;;23.50;99.90;;;;;;5070507;28;20165;-51
2023/07/21 11:24:08;;;;;;;5.20;4.07;;;23.90;99.90;;;;;;5070461;28;20170;-51
2023/07/21 11:26:38;;;;;;;3.97;2.80;;;24.00;99.90;;;;;;5080259;28;20176;-50
2023/07/21 11:29:08;;;;;;;3.63;3.33;;;24.30;99.90;;;;;;5090291;28;20165;-50
2023/07/21 11:31:36;;;;;;;4.07;2.97;;;24.10;99.90;;;;;;5090071;28;20161;-51
2023/07/21 11:34:02;;;;;;;3.85;3.55;;;24.10;99.90;;;;;;5089575;28;20210;-51
2023/07/21 11:36:33;;;;;;;3.97;3.20;;;24.10;99.90;;;;;;5090289;28;20171;-50
2023/07/21 11:39:11;;;;;;;5.35;3.40;;;24.10;99.90;;;;;;5089915;28;20176;-50
2023/07/21 11:41:43;;;;;;;3.35;2.85;;;24.30;99.90;;;;;;5090457;28;20195;-51
2023/07/21 11:44:10;;;;;;;5.05;2.65;;;24.30;99.90;;;;;;5090452;28;20179;-51
2023/07/21 11:46:37;;;;;;;4.75;2.88;;;24.30;99.90;;;;;;5071902;28;20169;-51
2023/07/21 11:49:10;;;;;;;3.88;2.30;;;24.20;99.90;;;;;;5071901;28;20226;-50
2023/07/21 11:51:46;;;;;;;5.47;2.40;;;24.10;99.90;;;;;;5090018;28;20165;-50
2023/07/21 11:54:29;;;;;;;2.88;2.53;;;24.60;99.90;;;;;;5089363;28;20215;-50
2023/07/21 11:56:55;;;;;;;2.38;2.17;;;24.60;99.90;;;;;;5076441;28;20173;-51
2023/07/21 11:59:22;;;;;;;3.65;2.25;;;24.40;99.90;;;;;;5069506;28;20627;-51
2023/07/21 12:01:48;;;;;;;2.70;2.20;;;24.70;99.90;;;;;;5086861;28;20777;-51
2023/07/21 12:04:14;;;;;;;2.65;2.17;;;24.80;99.90;;;;;;5093473;28;20172;-51
2023/07/21 12:06:41;;;;;;;5.97;2.05;;;25.00;99.90;;;;;;5093833;28;20520;-51
2023/07/21 12:09:07;;;;;;;8.48;1.98;;;25.20;99.90;;;;;;5094171;28;20172;-51
2023/07/21 12:11:38;;;;;;;2.45;2.03;;;24.80;98.40;;;;;;5093303;28;20224;-52
2023/07/21 12:14:04;;;;;;;3.80;2.10;;;21.80;99.10;;;;;;5092757;28;20291;-51
2023/07/21 12:16:31;;;;;;;2.78;2.53;;;24.30;99.90;;;;;;5093629;28;20268;-50
2023/07/21 12:18:57;;;;;;;5.28;2.35;;;24.30;99.90;;;;;;5093476;28;20164;-51
2023/07/21 12:21:26;;;;;;;2.92;2.50;;;25.00;99.90;;;;;;5092944;28;20169;-52
2023/07/21 12:23:52;;;;;;;5.25;2.50;;;25.20;99.90;;;;;;5093325;28;20180;-51
2023/07/21 12:26:18;;;;;;;6.55;2.75;;;25.30;99.90;;;;;;5067392;28;20178;-52
2023/07/21 12:28:45;;;;;;;5.47;2.42;;;25.20;99.90;;;;;;5085686;28;20184;-51
2023/07/21 12:31:11;;;;;;;2.47;2.17;;;25.10;99.90;;;;;;5093652;28;20184;-51
2023/07/21 12:33:39;;;;;;;2.33;2.13;;;25.20;99.90;;;;;;5093463;28;20664;-52